Time;durP1;ratioP1;P1;durP2;ratioP2;P2;SDS_P1;SDS_P2;PMS_P1;PMS_P2;Temp;Humidity;BMP_temperature;BMP_pressure;BME280_temperature;BME280_humidity;BME280_pressure;Samples;Min_cycle;Max_cycle;Signal;HPM_P1;HPM_P2
2022/10/30 00:01:26;;;;;;;4.97;4.47;;;13.00;99.90;;;;;;7369412;19;20329;-75
2022/10/30 00:03:51;;;;;;;5.53;4.50;;;13.00;99.90;;;;;;7372299;19;21154;-73
2022/10/30 00:06:18;;;;;;;5.38;4.60;;;13.00;99.90;;;;;;7373973;19;20308;-75
2022/10/30 00:08:43;;;;;;;4.95;4.38;;;13.00;99.90;;;;;;7372484;19;20927;-75
2022/10/30 00:11:10;;;;;;;5.30;4.80;;;12.90;99.90;;;;;;7372272;19;20361;-75
2022/10/30 00:13:36;;;;;;;6.13;4.60;;;12.90;99.90;;;;;;7364838;19;20357;-75
2022/10/30 00:16:05;;;;;;;5.65;4.18;;;12.90;99.90;;;;;;7371708;19;20356;-75
2022/10/30 00:18:31;;;;;;;4.80;4.10;;;12.90;99.90;;;;;;7370655;19;20356;-74
2022/10/30 00:20:57;;;;;;;4.40;3.97;;;12.80;99.90;;;;;;7370312;19;20409;-74
2022/10/30 00:23:22;;;;;;;5.75;4.20;;;12.80;99.90;;;;;;7371077;19;20377;-74
2022/10/30 00:25:48;;;;;;;4.87;3.97;;;12.80;99.90;;;;;;7371786;19;20341;-74
2022/10/30 00:28:13;;;;;;;3.80;3.47;;;12.70;99.90;;;;;;7369083;19;22854;-75
2022/10/30 00:30:39;;;;;;;4.03;3.60;;;12.70;99.90;;;;;;7370949;19;20340;-75
2022/10/30 00:33:05;;;;;;;3.77;3.37;;;12.60;99.90;;;;;;7368852;19;21036;-75
2022/10/30 00:35:30;;;;;;;4.30;3.47;;;12.60;99.90;;;;;;7371315;19;20328;-75
2022/10/30 00:37:56;;;;;;;3.67;3.33;;;12.70;99.90;;;;;;7370873;19;20337;-75
2022/10/30 00:40:21;;;;;;;5.70;3.60;;;12.70;99.90;;;;;;7369644;19;21172;-74
2022/10/30 00:42:47;;;;;;;3.58;3.28;;;12.70;99.90;;;;;;7372189;19;20977;-75
2022/10/30 00:45:16;;;;;;;3.93;3.60;;;12.60;99.90;;;;;;7371110;19;20360;-74
2022/10/30 00:47:48;;;;;;;3.60;3.30;;;12.60;99.90;;;;;;7371114;19;20341;-75
2022/10/30 00:50:24;;;;;;;3.43;3.13;;;12.50;99.90;;;;;;7369746;19;20313;-75
2022/10/30 00:52:56;;;;;;;3.42;3.13;;;12.40;99.90;;;;;;7370227;19;20412;-75
2022/10/30 00:55:30;;;;;;;3.55;3.25;;;12.40;99.90;;;;;;7369437;19;20321;-74
2022/10/30 00:57:57;;;;;;;3.10;2.80;;;12.40;99.90;;;;;;7267963;19;2004545;-74
2022/10/30 01:00:23;;;;;;;3.47;3.17;;;12.30;99.90;;;;;;7368787;19;21000;-74
2022/10/30 01:02:48;;;;;;;4.90;3.80;;;12.30;99.90;;;;;;7371679;19;20343;-75
2022/10/30 01:05:15;;;;;;;3.70;3.40;;;12.30;99.90;;;;;;7369994;19;20380;-75
2022/10/30 01:07:41;;;;;;;4.78;3.40;;;12.20;99.90;;;;;;7373266;19;20765;-74
2022/10/30 01:10:07;;;;;;;4.05;3.08;;;12.20;99.90;;;;;;7359104;19;20405;-75
2022/10/30 01:12:33;;;;;;;4.38;3.58;;;12.10;99.90;;;;;;7368625;19;21058;-75
2022/10/30 01:14:59;;;;;;;3.63;3.33;;;12.10;99.90;;;;;;7369721;19;20336;-74
2022/10/30 01:18:03;;;;;;;3.63;3.20;;;12.10;99.90;;;;;;7369209;19;20345;-74
2022/10/30 01:20:37;;;;;;;4.50;3.88;;;12.10;99.90;;;;;;7264325;19;2004466;-75
2022/10/30 01:23:14;;;;;;;3.80;3.35;;;12.10;99.90;;;;;;7368197;19;21078;-75
2022/10/30 01:26:13;;;;;;;3.88;3.42;;;12.10;99.90;;;;;;7369309;19;20419;-75
2022/10/30 01:29:01;;;;;;;4.32;3.80;;;12.00;99.90;;;;;;7264578;19;2004571;-75
2022/10/30 01:31:33;;;;;;;5.10;4.30;;;12.00;99.90;;;;;;7265788;19;2004200;-75
2022/10/30 01:34:16;;;;;;;4.70;4.00;;;11.90;99.90;;;;;;7368624;19;20335;-74
2022/10/30 01:36:46;;;;;;;4.63;4.23;;;11.80;99.90;;;;;;7368649;19;20371;-75
2022/10/30 01:39:19;;;;;;;4.27;3.57;;;11.80;99.90;;;;;;7365693;19;21419;-75
2022/10/30 01:41:45;;;;;;;5.90;4.95;;;11.70;99.90;;;;;;7368452;19;20316;-75
2022/10/30 01:44:14;;;;;;;7.33;5.20;;;11.70;99.90;;;;;;7366892;19;20348;-75
2022/10/30 01:47:07;;;;;;;5.82;5.30;;;11.70;99.90;;;;;;7368803;19;20332;-75
2022/10/30 01:50:01;;;;;;;6.68;5.78;;;11.60;99.90;;;;;;7263694;19;2004747;-74
2022/10/30 01:52:48;;;;;;;5.65;5.07;;;11.60;99.90;;;;;;7262307;19;2004313;-75
2022/10/30 01:55:27;;;;;;;6.50;4.80;;;11.60;99.90;;;;;;7366225;19;21286;-74
2022/10/30 01:57:57;;;;;;;5.72;5.13;;;11.60;99.90;;;;;;7367385;19;20333;-74
2022/10/30 02:00:23;;;;;;;5.00;4.50;;;11.60;99.90;;;;;;7366018;19;20331;-75
2022/10/30 02:02:49;;;;;;;5.32;4.82;;;11.60;99.90;;;;;;7367308;19;20305;-75
2022/10/30 02:05:32;;;;;;;5.90;4.88;;;11.70;99.90;;;;;;7367505;19;20862;-75
2022/10/30 02:07:57;;;;;;;6.68;5.50;;;11.70;99.90;;;;;;7265018;19;2016887;-74
2022/10/30 02:10:24;;;;;;;6.53;5.53;;;11.60;99.90;;;;;;7365899;19;20373;-75
2022/10/30 02:12:50;;;;;;;7.47;5.72;;;11.60;99.90;;;;;;7367375;19;20293;-76
2022/10/30 02:15:16;;;;;;;6.25;5.18;;;11.60;99.90;;;;;;7367812;19;20779;-76
2022/10/30 02:17:41;;;;;;;5.70;5.07;;;11.60;99.90;;;;;;7367073;19;20787;-78
2022/10/30 02:20:14;;;;;;;7.30;6.40;;;11.60;99.90;;;;;;7366979;19;20344;-75
2022/10/30 02:22:39;;;;;;;6.30;5.47;;;11.60;99.90;;;;;;7368755;19;21041;-75
2022/10/30 02:25:05;;;;;;;7.70;5.97;;;11.70;99.90;;;;;;7371241;19;20380;-76
2022/10/30 02:27:31;;;;;;;7.82;5.95;;;11.70;99.90;;;;;;7371881;19;20344;-75
2022/10/30 02:29:56;;;;;;;7.83;6.57;;;11.70;99.90;;;;;;7366854;19;20316;-75
2022/10/30 02:32:22;;;;;;;8.57;6.10;;;11.60;99.90;;;;;;7368760;19;20312;-79
2022/10/30 02:34:47;;;;;;;8.70;6.95;;;11.60;99.90;;;;;;7368531;19;20404;-75
2022/10/30 02:37:13;;;;;;;8.73;6.20;;;11.60;99.90;;;;;;7366660;19;20677;-76
2022/10/30 02:39:39;;;;;;;7.20;5.95;;;11.60;99.90;;;;;;7365377;19;20357;-77
2022/10/30 02:42:05;;;;;;;7.37;6.30;;;11.60;99.90;;;;;;7366141;19;20304;-77
2022/10/30 02:44:30;;;;;;;6.57;5.85;;;11.60;99.90;;;;;;7369234;19;20719;-77
2022/10/30 02:46:56;;;;;;;6.67;5.97;;;11.70;99.90;;;;;;7367832;19;21124;-75
2022/10/30 02:49:22;;;;;;;6.80;5.70;;;11.70;99.90;;;;;;7366903;19;20319;-75
2022/10/30 02:51:48;;;;;;;6.70;5.75;;;11.80;99.90;;;;;;7371826;19;20342;-75
2022/10/30 02:54:14;;;;;;;8.00;6.97;;;11.80;99.90;;;;;;7373627;19;20347;-77
2022/10/30 02:56:40;;;;;;;7.05;5.90;;;11.80;99.90;;;;;;7373318;19;20332;-75
2022/10/30 02:59:05;;;;;;;6.65;5.93;;;11.80;99.90;;;;;;7372269;19;20344;-76
2022/10/30 03:01:31;;;;;;;6.83;6.13;;;11.90;99.90;;;;;;7373164;19;20364;-77
2022/10/30 03:03:58;;;;;;;9.38;6.47;;;11.90;99.90;;;;;;7373192;19;20323;-74
2022/10/30 03:06:23;;;;;;;7.30;6.30;;;11.90;99.90;;;;;;7373962;19;20312;-76
2022/10/30 03:08:49;;;;;;;7.55;6.30;;;12.00;99.90;;;;;;7372979;19;20309;-77
2022/10/30 03:11:16;;;;;;;7.67;6.27;;;12.00;99.90;;;;;;7371550;19;20337;-79
2022/10/30 03:13:42;;;;;;;6.80;6.10;;;12.00;99.90;;;;;;7373618;19;20356;-76
2022/10/30 03:16:14;;;;;;;8.60;6.20;;;12.00;99.90;;;;;;7372491;19;20336;-76
2022/10/30 03:18:39;;;;;;;7.93;5.80;;;11.90;99.90;;;;;;7372697;19;20368;-77
2022/10/30 03:21:09;;;;;;;7.57;6.20;;;11.90;99.90;;;;;;7373868;19;20325;-76
2022/10/30 03:23:35;;;;;;;6.30;5.30;;;11.90;99.90;;;;;;7372828;19;20345;-76
2022/10/30 03:26:01;;;;;;;5.88;5.28;;;11.90;99.90;;;;;;7374527;19;20320;-75
2022/10/30 03:28:29;;;;;;;6.03;5.43;;;11.90;99.90;;;;;;7373411;19;20336;-76
2022/10/30 03:30:59;;;;;;;7.53;5.55;;;12.00;99.90;;;;;;7374093;19;20328;-76
2022/10/30 03:33:25;;;;;;;6.30;5.70;;;12.00;99.90;;;;;;7374181;19;20874;-75
2022/10/30 03:35:50;;;;;;;6.78;5.28;;;12.00;99.90;;;;;;7374014;19;20309;-76
2022/10/30 03:38:16;;;;;;;6.53;5.70;;;12.00;99.90;;;;;;7372702;19;21039;-79
2022/10/30 03:40:42;;;;;;;7.00;5.68;;;12.10;99.90;;;;;;7374303;19;20982;-77
2022/10/30 03:43:09;;;;;;;6.00;5.30;;;12.10;99.90;;;;;;7371848;19;20400;-74
2022/10/30 03:45:35;;;;;;;5.97;5.22;;;12.10;99.90;;;;;;7372786;19;21280;-74
2022/10/30 03:48:04;;;;;;;6.00;5.10;;;12.10;99.90;;;;;;7372283;19;20348;-75
2022/10/30 03:50:30;;;;;;;8.05;6.25;;;12.00;99.90;;;;;;7369461;19;20329;-74
2022/10/30 03:52:56;;;;;;;5.68;5.00;;;12.00;99.90;;;;;;7370743;19;20313;-74
2022/10/30 03:55:22;;;;;;;6.88;5.30;;;12.00;99.90;;;;;;7371142;19;20875;-74
2022/10/30 03:57:48;;;;;;;6.70;5.33;;;12.00;99.90;;;;;;7372867;19;20321;-74
2022/10/30 04:00:15;;;;;;;7.35;6.10;;;12.10;99.90;;;;;;7371181;19;20348;-78
2022/10/30 04:02:49;;;;;;;5.63;5.00;;;12.00;99.90;;;;;;7371546;19;20309;-75
2022/10/30 04:05:16;;;;;;;6.03;4.93;;;12.00;99.90;;;;;;7371878;19;20741;-79
2022/10/30 04:07:42;;;;;;;5.25;4.50;;;12.00;99.90;;;;;;7372032;19;20353;-78
2022/10/30 04:10:08;;;;;;;5.80;3.85;;;12.00;99.90;;;;;;7370851;19;20345;-76
2022/10/30 04:12:34;;;;;;;4.30;3.90;;;12.00;99.90;;;;;;7372685;19;20963;-75
2022/10/30 04:14:59;;;;;;;5.10;3.65;;;12.10;99.90;;;;;;7371933;19;20404;-75
2022/10/30 04:17:25;;;;;;;3.65;3.30;;;12.10;99.90;;;;;;7371283;19;20316;-75
2022/10/30 04:19:51;;;;;;;3.53;3.23;;;12.10;99.90;;;;;;7373442;19;20312;-77
2022/10/30 04:22:16;;;;;;;4.00;3.60;;;12.10;99.90;;;;;;7373855;19;20371;-76
2022/10/30 04:24:43;;;;;;;3.80;3.33;;;12.00;99.90;;;;;;7373410;19;20480;-75
2022/10/30 04:27:09;;;;;;;3.88;3.25;;;12.10;99.90;;;;;;7370551;19;20332;-75
2022/10/30 04:29:36;;;;;;;4.13;3.50;;;12.10;99.90;;;;;;7369559;19;20742;-75
2022/10/30 04:32:02;;;;;;;3.20;3.00;;;12.10;99.90;;;;;;7369786;19;20456;-74
2022/10/30 04:34:29;;;;;;;3.58;3.28;;;12.10;99.90;;;;;;7369400;19;21331;-75
2022/10/30 04:36:54;;;;;;;3.70;3.30;;;12.10;99.90;;;;;;7369611;19;20320;-74
2022/10/30 04:39:20;;;;;;;3.28;2.97;;;12.10;99.90;;;;;;7368272;19;20317;-75
2022/10/30 04:41:48;;;;;;;4.40;3.10;;;12.20;99.90;;;;;;7368719;19;20321;-75
2022/10/30 04:44:19;;;;;;;2.70;2.50;;;12.10;99.90;;;;;;7369317;19;20333;-75
2022/10/30 04:46:45;;;;;;;3.17;2.88;;;12.10;99.90;;;;;;7370056;19;21370;-75
2022/10/30 04:49:11;;;;;;;2.70;2.50;;;12.10;99.90;;;;;;7367917;19;20323;-75
2022/10/30 04:51:36;;;;;;;4.13;2.70;;;12.10;99.90;;;;;;7370619;19;20336;-75
2022/10/30 04:54:04;;;;;;;3.45;3.15;;;12.10;99.90;;;;;;7369310;19;20324;-75
2022/10/30 04:56:31;;;;;;;4.00;3.60;;;12.20;99.90;;;;;;7370185;19;20353;-75
2022/10/30 04:58:58;;;;;;;3.30;3.10;;;12.20;99.90;;;;;;7370140;19;20340;-75
2022/10/30 05:01:23;;;;;;;3.42;3.13;;;12.10;99.90;;;;;;7368765;19;20380;-75
2022/10/30 05:03:49;;;;;;;4.40;3.00;;;12.10;99.90;;;;;;7368992;19;20360;-78
2022/10/30 05:06:24;;;;;;;4.10;3.70;;;12.00;99.90;;;;;;7370343;19;20324;-76
2022/10/30 05:08:50;;;;;;;5.30;3.17;;;12.00;99.90;;;;;;7369116;19;21246;-76
2022/10/30 05:11:33;;;;;;;3.42;3.13;;;11.90;99.90;;;;;;7269103;19;2004382;-76
2022/10/30 05:13:58;;;;;;;4.13;3.50;;;11.90;99.90;;;;;;7366944;19;20409;-77
2022/10/30 05:16:24;;;;;;;4.75;4.18;;;11.90;99.90;;;;;;7370385;19;20398;-77
2022/10/30 05:18:51;;;;;;;7.82;5.55;;;11.90;99.90;;;;;;7368697;19;20653;-76
2022/10/30 05:21:17;;;;;;;6.73;5.50;;;11.90;99.90;;;;;;7369792;19;20326;-77
2022/10/30 05:23:43;;;;;;;6.65;5.30;;;12.00;99.90;;;;;;7367772;19;20804;-74
2022/10/30 05:26:09;;;;;;;6.60;4.95;;;12.10;99.90;;;;;;7369164;19;20413;-74
2022/10/30 05:28:34;;;;;;;9.50;6.47;;;12.10;99.90;;;;;;7366140;19;20352;-74
2022/10/30 05:31:00;;;;;;;11.38;6.97;;;12.10;99.90;;;;;;7368827;19;20344;-74
2022/10/30 05:33:45;;;;;;;10.07;7.00;;;12.20;99.90;;;;;;7369642;19;20344;-76
2022/10/30 05:36:10;;;;;;;8.38;5.88;;;12.30;99.90;;;;;;7368242;19;20327;-76
2022/10/30 05:38:36;;;;;;;8.30;6.27;;;12.30;99.90;;;;;;7370537;19;20361;-76
2022/10/30 05:41:05;;;;;;;9.45;7.38;;;12.30;99.90;;;;;;7367799;19;20344;-77
2022/10/30 05:43:30;;;;;;;7.67;6.60;;;12.30;99.90;;;;;;7367463;19;20701;-77
2022/10/30 05:45:56;;;;;;;9.53;7.00;;;12.30;99.90;;;;;;7369484;19;20324;-76
2022/10/30 05:48:22;;;;;;;9.35;6.68;;;12.20;99.90;;;;;;7367659;19;20311;-75
2022/10/30 05:50:47;;;;;;;10.07;7.43;;;12.20;99.90;;;;;;7367675;19;20328;-76
2022/10/30 05:53:23;;;;;;;10.95;6.88;;;12.20;99.90;;;;;;7367833;19;20684;-77
2022/10/30 05:55:49;;;;;;;8.30;6.00;;;12.20;99.90;;;;;;7368635;19;20320;-78
2022/10/30 05:58:19;;;;;;;9.87;6.77;;;12.30;99.90;;;;;;7369164;19;20311;-77
2022/10/30 06:00:45;;;;;;;10.17;6.90;;;12.30;99.90;;;;;;7369116;19;25638;-77
2022/10/30 06:03:15;;;;;;;9.07;7.07;;;12.40;99.90;;;;;;7368475;19;20325;-76
2022/10/30 06:05:43;;;;;;;8.25;6.75;;;12.40;99.90;;;;;;7368561;19;20363;-77
2022/10/30 06:08:09;;;;;;;8.57;5.97;;;12.50;99.90;;;;;;7368285;19;21293;-76
2022/10/30 06:10:35;;;;;;;10.33;6.53;;;12.50;99.90;;;;;;7368258;19;20420;-75
2022/10/30 06:13:10;;;;;;;10.73;6.75;;;12.50;99.90;;;;;;7366044;19;20323;-75
2022/10/30 06:15:56;;;;;;;8.88;6.75;;;12.60;99.90;;;;;;7265562;19;2004382;-74
2022/10/30 06:18:22;;;;;;;8.25;5.97;;;12.60;99.90;;;;;;7365684;19;20348;-75
2022/10/30 06:20:54;;;;;;;7.97;6.00;;;12.60;99.90;;;;;;7365937;19;20803;-75
2022/10/30 06:23:38;;;;;;;6.57;5.60;;;12.60;99.90;;;;;;7265257;19;2004429;-75
2022/10/30 06:26:11;;;;;;;8.85;5.60;;;12.60;99.90;;;;;;7372438;19;20312;-75
2022/10/30 06:28:43;;;;;;;5.38;4.80;;;12.60;99.90;;;;;;7372450;19;20368;-75
2022/10/30 06:31:10;;;;;;;5.50;4.90;;;12.60;99.90;;;;;;7372047;19;20371;-75
2022/10/30 06:33:37;;;;;;;5.85;4.68;;;12.70;99.90;;;;;;7372356;19;20440;-75
2022/10/30 06:36:03;;;;;;;6.90;5.35;;;12.70;99.90;;;;;;7373962;19;20344;-75
2022/10/30 06:38:28;;;;;;;8.38;6.40;;;12.70;99.90;;;;;;7372269;19;20353;-75
2022/10/30 06:40:54;;;;;;;8.80;5.43;;;12.70;99.90;;;;;;7372933;19;20328;-75
2022/10/30 06:43:52;;;;;;;5.75;4.88;;;12.70;99.90;;;;;;7271848;19;2004584;-75
2022/10/30 06:46:21;;;;;;;4.90;4.28;;;12.70;99.90;;;;;;7373089;19;20384;-75
2022/10/30 06:48:48;;;;;;;5.70;5.05;;;12.80;99.90;;;;;;7373226;19;20297;-75
2022/10/30 06:51:15;;;;;;;7.53;5.05;;;12.90;99.90;;;;;;7374221;19;20348;-75
2022/10/30 06:53:41;;;;;;;7.00;5.10;;;13.00;99.90;;;;;;7372505;19;20355;-75
2022/10/30 06:56:25;;;;;;;5.10;4.60;;;12.90;99.90;;;;;;7375499;19;20344;-75
2022/10/30 06:59:09;;;;;;;4.93;4.32;;;13.00;99.90;;;;;;7270769;19;2004386;-76
2022/10/30 07:01:43;;;;;;;6.50;4.15;;;13.00;99.90;;;;;;7373442;19;20344;-75
2022/10/30 07:04:21;;;;;;;5.38;4.53;;;13.10;99.90;;;;;;7372277;19;20317;-76
2022/10/30 07:06:47;;;;;;;5.83;4.47;;;13.10;99.90;;;;;;7372268;19;20323;-75
2022/10/30 07:09:12;;;;;;;5.32;4.80;;;13.00;99.90;;;;;;7372828;19;20329;-76
2022/10/30 07:11:44;;;;;;;5.30;4.25;;;13.10;99.90;;;;;;7372746;19;20949;-76
2022/10/30 07:14:36;;;;;;;5.18;4.68;;;13.10;99.90;;;;;;7269392;19;2005425;-75
2022/10/30 07:17:12;;;;;;;7.72;5.15;;;13.20;99.90;;;;;;7372831;19;20329;-76
2022/10/30 07:19:39;;;;;;;7.53;5.15;;;13.10;99.90;;;;;;7370227;19;20341;-76
2022/10/30 07:22:05;;;;;;;7.97;5.90;;;13.00;99.90;;;;;;7373594;19;20331;-75
2022/10/30 07:24:32;;;;;;;15.23;8.80;;;13.00;99.90;;;;;;7373238;19;20339;-75
2022/10/30 07:27:24;;;;;;;11.93;8.53;;;13.00;99.90;;;;;;7372618;19;20296;-76
2022/10/30 07:29:59;;;;;;;9.05;6.80;;;13.00;99.90;;;;;;7269878;19;2004877;-76
2022/10/30 07:32:32;;;;;;;6.57;5.90;;;13.10;99.90;;;;;;7372030;19;20879;-75
2022/10/30 07:35:24;;;;;;;6.90;5.73;;;13.20;99.90;;;;;;7372192;19;20317;-76
2022/10/30 07:38:27;;;;;;;7.88;5.18;;;13.20;99.90;;;;;;7172120;19;2005271;-77
2022/10/30 07:41:01;;;;;;;5.15;4.65;;;13.30;99.90;;;;;;7373606;19;20324;-76
2022/10/30 07:43:41;;;;;;;6.55;4.93;;;13.40;99.90;;;;;;7374171;19;20353;-76
2022/10/30 07:46:34;;;;;;;5.00;4.50;;;13.50;99.90;;;;;;7269588;19;2004201;-76
2022/10/30 07:49:19;;;;;;;5.78;5.07;;;13.60;99.90;;;;;;7373509;19;20316;-76
2022/10/30 07:51:52;;;;;;;6.10;4.88;;;13.70;99.90;;;;;;7375238;19;20313;-79
2022/10/30 07:54:18;;;;;;;4.53;4.05;;;13.80;99.90;;;;;;7374669;19;20416;-77
2022/10/30 07:56:43;;;;;;;5.83;4.63;;;13.90;99.90;;;;;;7373665;19;20359;-77
2022/10/30 07:59:28;;;;;;;5.05;4.32;;;13.90;99.90;;;;;;7269851;19;2004532;-77
2022/10/30 08:02:12;;;;;;;9.48;6.00;;;13.90;99.90;;;;;;7376509;19;20353;-76
2022/10/30 08:05:01;;;;;;;8.70;6.00;;;14.00;99.90;;;;;;7271132;19;2004212;-77
2022/10/30 08:07:40;;;;;;;7.22;5.30;;;14.10;99.90;;;;;;7376361;19;20344;-78
2022/10/30 08:10:06;;;;;;;4.10;3.70;;;14.20;99.90;;;;;;7374222;19;20346;-75
2022/10/30 08:12:33;;;;;;;4.50;4.10;;;14.20;99.90;;;;;;7374344;19;21593;-76
2022/10/30 08:14:58;;;;;;;7.65;4.60;;;14.30;99.90;;;;;;7375819;19;20363;-76
2022/10/30 08:17:24;;;;;;;6.77;4.73;;;14.40;99.90;;;;;;7375578;19;20288;-76
2022/10/30 08:19:49;;;;;;;5.68;4.22;;;14.50;99.90;;;;;;7373546;19;20828;-75
2022/10/30 08:22:16;;;;;;;5.78;4.40;;;14.50;99.90;;;;;;7375586;19;20347;-75
2022/10/30 08:24:43;;;;;;;3.72;3.40;;;14.60;99.90;;;;;;7376385;19;20344;-75
2022/10/30 08:27:09;;;;;;;5.43;4.27;;;14.70;99.90;;;;;;7373766;19;20357;-75
2022/10/30 08:29:34;;;;;;;6.13;4.60;;;14.70;99.90;;;;;;7373694;19;20345;-75
2022/10/30 08:32:01;;;;;;;6.45;4.88;;;14.80;99.90;;;;;;7372903;19;20324;-75
2022/10/30 08:34:52;;;;;;;5.70;5.07;;;14.90;99.90;;;;;;7374300;19;20335;-75
2022/10/30 08:37:18;;;;;;;7.95;4.95;;;15.00;99.90;;;;;;7376841;19;20305;-75
2022/10/30 08:39:44;;;;;;;7.95;4.57;;;15.10;99.90;;;;;;7374979;19;20388;-76
2022/10/30 08:42:35;;;;;;;8.17;5.20;;;15.10;99.90;;;;;;7272406;19;2004396;-75
2022/10/30 08:45:05;;;;;;;5.80;5.13;;;15.20;99.90;;;;;;7374413;19;20339;-75
2022/10/30 08:47:58;;;;;;;7.20;4.88;;;15.30;99.90;;;;;;7375618;19;20868;-75
2022/10/30 08:50:26;;;;;;;8.05;5.32;;;15.50;99.90;;;;;;7374555;19;20345;-75
2022/10/30 08:52:51;;;;;;;9.50;5.35;;;15.60;99.90;;;;;;7377298;19;21440;-75
2022/10/30 08:55:17;;;;;;;8.23;4.87;;;15.70;99.90;;;;;;7375585;19;20309;-75
2022/10/30 08:57:43;;;;;;;5.32;4.22;;;15.80;99.90;;;;;;7373581;19;20707;-75
2022/10/30 09:00:09;;;;;;;8.83;4.90;;;15.90;99.90;;;;;;7375026;19;20333;-75
2022/10/30 09:02:54;;;;;;;5.45;4.28;;;16.00;99.90;;;;;;7374161;19;20336;-75
2022/10/30 09:05:46;;;;;;;6.73;4.40;;;16.00;99.90;;;;;;7273820;19;2004394;-75
2022/10/30 09:08:47;;;;;;;8.90;5.00;;;16.10;99.90;;;;;;7272861;19;2004471;-76
2022/10/30 09:11:25;;;;;;;6.78;4.90;;;16.20;99.90;;;;;;7372864;19;20348;-77
2022/10/30 09:13:51;;;;;;;9.20;4.60;;;16.20;99.90;;;;;;7379992;19;20335;-76
2022/10/30 09:16:17;;;;;;;7.20;4.60;;;16.30;99.90;;;;;;7380934;19;20408;-78
2022/10/30 09:18:43;;;;;;;5.15;4.10;;;16.30;99.90;;;;;;7372941;19;20347;-75
2022/10/30 09:21:09;;;;;;;4.97;4.00;;;16.40;99.90;;;;;;7374799;19;20832;-77
2022/10/30 09:23:42;;;;;;;6.93;4.90;;;16.60;99.90;;;;;;7375152;19;20353;-78
2022/10/30 09:26:27;;;;;;;5.53;3.50;;;16.70;99.90;;;;;;7272745;19;2004430;-76
2022/10/30 09:28:59;;;;;;;4.55;3.50;;;16.80;99.90;;;;;;7375632;19;20308;-76
2022/10/30 09:31:44;;;;;;;4.97;3.65;;;16.90;99.90;;;;;;7375441;19;20352;-79
2022/10/30 09:34:14;;;;;;;5.10;3.60;;;17.00;99.90;;;;;;7372425;19;20344;-76
2022/10/30 09:36:45;;;;;;;6.05;3.90;;;17.10;99.90;;;;;;7371481;19;20380;-79
2022/10/30 09:39:10;;;;;;;5.97;4.55;;;17.20;99.90;;;;;;7371785;19;20337;-80
2022/10/30 09:42:17;;;;;;;7.75;4.55;;;17.30;99.90;;;;;;7373952;19;20332;-76
2022/10/30 09:45:24;;;;;;;3.78;3.30;;;17.40;99.90;;;;;;7272642;19;2004662;-77
2022/10/30 09:48:00;;;;;;;8.63;4.18;;;17.50;99.90;;;;;;7271065;19;2004673;-77
2022/10/30 09:50:56;;;;;;;4.68;3.63;;;17.70;99.90;;;;;;7374055;19;22670;-79
2022/10/30 09:53:29;;;;;;;6.43;3.70;;;17.80;99.90;;;;;;7271930;19;2004768;-77
2022/10/30 09:55:59;;;;;;;10.15;4.47;;;17.90;99.90;;;;;;7271767;19;2004528;-79
2022/10/30 09:58:41;;;;;;;6.53;4.10;;;18.00;99.90;;;;;;7376269;19;20325;-78
2022/10/30 10:01:20;;;;;;;6.07;4.28;;;18.10;99.90;;;;;;7271624;19;2004329;-83
2022/10/30 10:03:59;;;;;;;6.38;4.80;;;18.20;99.90;;;;;;7377378;19;20397;-76
2022/10/30 10:07:01;;;;;;;5.43;4.03;;;18.30;99.90;;;;;;7168795;19;2004650;-79
2022/10/30 10:09:41;;;;;;;7.28;4.07;;;18.40;99.90;;;;;;7374924;19;21201;-77
2022/10/30 10:12:43;;;;;;;5.43;3.55;;;18.50;99.90;;;;;;7271294;19;2004651;-76
2022/10/30 10:15:24;;;;;;;4.65;3.70;;;18.60;99.90;;;;;;7369217;19;20337;-78
2022/10/30 10:17:49;;;;;;;5.03;3.90;;;18.70;99.90;;;;;;7366571;19;20336;-79
2022/10/30 10:20:22;;;;;;;5.97;3.60;;;18.80;99.90;;;;;;7366777;19;21414;-77
2022/10/30 10:22:49;;;;;;;6.03;3.80;;;18.90;99.90;;;;;;7372607;19;20305;-79
2022/10/30 10:25:16;;;;;;;6.03;3.95;;;19.10;99.90;;;;;;7373205;19;20338;-80
2022/10/30 10:27:52;;;;;;;5.82;3.60;;;19.10;99.90;;;;;;7368764;19;20653;-79
2022/10/30 10:30:25;;;;;;;4.18;3.30;;;19.10;99.90;;;;;;7371454;19;20385;-79
2022/10/30 10:33:05;;;;;;;5.35;3.25;;;19.30;99.90;;;;;;7374118;19;20309;-80
2022/10/30 10:35:49;;;;;;;7.85;5.57;;;19.40;99.90;;;;;;7278576;19;2015856;-79
2022/10/30 10:38:23;;;;;;;6.80;3.78;;;19.50;99.90;;;;;;7384155;19;20319;-76
2022/10/30 10:44:31;;;;;;;5.22;3.22;;;19.80;99.90;;;;;;7259346;19;2004487;-78
2022/10/30 10:47:16;;;;;;;6.72;3.40;;;20.00;99.90;;;;;;7365340;19;20341;-79
2022/10/30 10:49:55;;;;;;;6.20;3.20;;;20.10;99.90;;;;;;7268333;19;2004402;-77
2022/10/30 10:52:36;;;;;;;4.37;3.30;;;20.30;99.90;;;;;;7376308;19;20317;-81
2022/10/30 10:55:15;;;;;;;5.43;2.92;;;20.40;99.90;;;;;;7274027;19;2019670;-77
2022/10/30 10:57:41;;;;;;;5.15;3.03;;;20.60;99.90;;;;;;7381448;19;20882;-82
2022/10/30 11:00:15;;;;;;;5.95;3.47;;;20.60;99.90;;;;;;7372211;19;20329;-77
2022/10/30 11:02:46;;;;;;;5.38;3.20;;;20.70;99.90;;;;;;7373529;19;20423;-78
2022/10/30 11:05:24;;;;;;;5.63;3.45;;;20.80;99.90;;;;;;7372046;19;20324;-77
2022/10/30 11:07:50;;;;;;;5.22;2.97;;;20.90;99.90;;;;;;7374459;19;20317;-78
2022/10/30 11:10:17;;;;;;;7.93;3.47;;;21.00;99.90;;;;;;7374810;19;20316;-77
2022/10/30 11:12:43;;;;;;;4.13;3.37;;;21.00;99.90;;;;;;7377034;19;20355;-77
2022/10/30 11:15:20;;;;;;;6.63;3.60;;;21.10;99.90;;;;;;7381077;19;20344;-78
2022/10/30 11:18:01;;;;;;;4.47;3.20;;;21.10;99.90;;;;;;7381192;19;20340;-78
2022/10/30 11:20:50;;;;;;;8.43;3.53;;;21.20;99.90;;;;;;7378858;19;21688;-77
2022/10/30 11:23:39;;;;;;;5.17;3.20;;;21.30;99.90;;;;;;7277413;19;2018858;-78
2022/10/30 11:26:16;;;;;;;3.38;2.92;;;21.40;99.90;;;;;;7278237;19;2004416;-78
2022/10/30 11:28:51;;;;;;;4.38;3.30;;;21.50;99.90;;;;;;7387936;19;20368;-77
2022/10/30 11:31:21;;;;;;;5.45;3.00;;;21.60;99.90;;;;;;7383602;19;21403;-77
2022/10/30 11:33:46;;;;;;;4.80;3.38;;;21.70;99.90;;;;;;7385601;19;20348;-76
2022/10/30 11:36:14;;;;;;;8.45;3.53;;;21.60;99.90;;;;;;7380551;19;20321;-79
2022/10/30 11:38:40;;;;;;;4.70;3.40;;;21.60;99.90;;;;;;7382154;19;20363;-78
2022/10/30 11:41:05;;;;;;;4.90;3.60;;;21.60;99.90;;;;;;7382977;19;20439;-78
2022/10/30 11:43:31;;;;;;;6.15;3.30;;;21.60;99.90;;;;;;7385246;19;20341;-82
2022/10/30 11:45:56;;;;;;;6.70;3.40;;;21.70;99.90;;;;;;7384638;19;20408;-81
2022/10/30 11:48:30;;;;;;;5.63;3.30;;;21.80;99.90;;;;;;7382796;19;20341;-76
2022/10/30 11:50:58;;;;;;;5.85;3.17;;;21.90;99.90;;;;;;7384425;19;20328;-76
2022/10/30 11:53:33;;;;;;;3.30;3.00;;;22.00;99.90;;;;;;7381781;19;20345;-78
2022/10/30 11:55:59;;;;;;;6.32;3.60;;;22.10;99.90;;;;;;7283264;19;2004239;-77
2022/10/30 11:58:28;;;;;;;5.67;2.90;;;22.30;99.90;;;;;;7379607;19;20795;-79
2022/10/30 12:01:05;;;;;;;7.80;3.55;;;22.40;99.90;;;;;;7379247;19;20349;-80
2022/10/30 12:03:35;;;;;;;7.28;3.30;;;22.50;99.90;;;;;;7272885;19;2016853;-76
2022/10/30 12:06:21;;;;;;;7.32;3.83;;;22.60;99.90;;;;;;7375942;19;20389;-80
2022/10/30 12:09:09;;;;;;;5.20;3.17;;;22.60;99.90;;;;;;7378022;19;20463;-77
2022/10/30 12:11:35;;;;;;;5.85;2.88;;;22.80;99.90;;;;;;7270227;19;2004383;-81
2022/10/30 12:14:00;;;;;;;5.60;3.17;;;22.90;99.90;;;;;;7372863;19;20345;-80
2022/10/30 12:16:26;;;;;;;6.38;3.08;;;22.80;99.90;;;;;;7377601;19;20324;-79
2022/10/30 12:19:03;;;;;;;6.00;3.50;;;22.80;99.90;;;;;;7376820;19;20411;-83
2022/10/30 12:21:39;;;;;;;5.30;3.47;;;22.70;99.90;;;;;;7275149;19;2004320;-80
2022/10/30 12:24:08;;;;;;;5.30;3.22;;;22.80;99.90;;;;;;7376884;19;20382;-82
2022/10/30 12:26:34;;;;;;;4.47;3.25;;;22.90;99.90;;;;;;7375380;19;20341;-80
2022/10/30 12:32:37;;;;;;;3.83;3.10;;;23.00;99.90;;;;;;7263338;19;2004446;-78
2022/10/30 12:35:18;;;;;;;8.18;3.30;;;22.90;99.90;;;;;;7273836;19;2004976;-78
2022/10/30 12:37:43;;;;;;;6.95;3.20;;;22.90;99.90;;;;;;7379591;19;20335;-80
2022/10/30 12:40:15;;;;;;;8.23;3.40;;;22.70;99.90;;;;;;7382959;19;20308;-86
2022/10/30 12:42:48;;;;;;;4.43;2.60;;;22.60;99.90;;;;;;7377527;19;20332;-83
2022/10/30 12:45:19;;;;;;;4.17;2.80;;;22.60;99.90;;;;;;7375629;19;20313;-83
2022/10/30 12:47:50;;;;;;;6.43;3.13;;;22.70;99.90;;;;;;7373179;19;20364;-82
2022/10/30 12:50:22;;;;;;;4.78;2.65;;;22.70;99.90;;;;;;7373206;19;20762;-82
2022/10/30 12:53:18;;;;;;;5.57;3.10;;;22.90;99.90;;;;;;7374410;19;20337;-84
2022/10/30 12:55:46;;;;;;;9.57;3.55;;;23.00;99.90;;;;;;7273717;19;2004331;-87
2022/10/30 12:58:21;;;;;;;5.85;3.33;;;23.00;99.90;;;;;;7374596;19;20308;-80
2022/10/30 13:00:57;;;;;;;4.90;2.47;;;23.20;99.90;;;;;;7372645;19;20353;-83
2022/10/30 13:03:36;;;;;;;3.50;2.28;;;23.20;99.90;;;;;;7351974;19;20324;-82
2022/10/30 13:06:06;;;;;;;4.53;2.90;;;23.30;99.90;;;;;;7371907;19;20312;-80
2022/10/30 13:08:50;;;;;;;5.97;3.08;;;23.30;99.90;;;;;;7371790;19;20328;-81
2022/10/30 13:11:46;;;;;;;7.80;3.27;;;23.20;99.90;;;;;;7271119;19;2018923;-80
2022/10/30 13:14:15;;;;;;;4.07;2.90;;;22.90;99.90;;;;;;7267052;19;2004741;-86